Time;durP1;ratioP1;P1;durP2;ratioP2;P2;SDS_P1;SDS_P2;PMS_P1;PMS_P2;Temp;Humidity;BMP_temperature;BMP_pressure;BME280_temperature;BME280_humidity;BME280_pressure;Samples;Min_cycle;Max_cycle;Signal;HPM_P1;HPM_P2
2022/09/17 00:01:15;;;;;;;;;;;10.10;99.90;;;;;;5025676;28;20002;-63
2022/09/17 00:03:41;;;;;;;;;;;10.10;99.90;;;;;;5025315;28;19909;-63
2022/09/17 00:06:08;;;;;;;;;;;10.20;99.90;;;;;;5025776;28;20430;-63
2022/09/17 00:08:34;;;;;;;;;;;10.10;99.90;;;;;;5025195;28;19916;-63
2022/09/17 00:11:07;;;;;;;;;;;10.10;99.90;;;;;;5028365;28;19916;-63
2022/09/17 00:13:33;;;;;;;;;;;10.10;99.90;;;;;;5019270;28;19917;-62
2022/09/17 00:15:58;;;;;;;;;;;10.10;99.90;;;;;;5024634;28;20379;-62
2022/09/17 00:18:24;;;;;;;;;;;10.20;99.90;;;;;;5028233;28;19994;-63
2022/09/17 00:20:49;;;;;;;;;;;10.10;99.90;;;;;;5024181;28;19986;-63
2022/09/17 00:23:15;;;;;;;;;;;10.10;99.90;;;;;;5021089;28;20011;-63
2022/09/17 00:25:41;;;;;;;;;;;10.10;99.90;;;;;;5024815;28;20308;-63
2022/09/17 00:28:07;;;;;;;;;;;10.10;99.90;;;;;;5021763;28;19913;-63
2022/09/17 00:30:33;;;;;;;;;;;10.10;99.90;;;;;;5026782;28;20373;-63
2022/09/17 00:32:58;;;;;;;;;;;10.10;99.90;;;;;;5027257;28;19908;-63
2022/09/17 00:35:24;;;;;;;;;;;10.00;99.90;;;;;;5022833;28;19913;-63
2022/09/17 00:37:50;;;;;;;;;;;10.00;99.90;;;;;;5023526;28;19978;-63
2022/09/17 00:40:15;;;;;;;;;;;10.00;99.90;;;;;;5024567;28;19919;-63
2022/09/17 00:42:41;;;;;;;;;;;10.00;99.90;;;;;;5029639;28;19909;-62
2022/09/17 00:45:08;;;;;;;;;;;10.00;99.90;;;;;;5022499;28;19917;-62
2022/09/17 00:47:37;;;;;;;;;;;10.00;99.90;;;;;;5021992;28;19948;-63
2022/09/17 00:50:03;;;;;;;;;;;10.00;99.90;;;;;;5024368;28;19948;-63
2022/09/17 00:52:31;;;;;;;;;;;10.00;99.90;;;;;;5022877;28;19956;-63
2022/09/17 00:55:00;;;;;;;;;;;9.90;99.90;;;;;;5026585;28;20365;-63
2022/09/17 00:57:27;;;;;;;;;;;9.90;99.90;;;;;;5025559;28;19905;-63
2022/09/17 00:59:52;;;;;;;;;;;9.80;99.90;;;;;;5019912;28;19909;-63
2022/09/17 01:02:18;;;;;;;;;;;9.80;99.90;;;;;;5024914;28;19909;-63
2022/09/17 01:04:44;;;;;;;;;;;9.80;99.90;;;;;;5025920;28;19912;-63
2022/09/17 01:07:28;;;;;;;;;;;9.70;99.90;;;;;;5017697;28;19909;-63
2022/09/17 01:10:01;;;;;;;;;;;9.70;99.90;;;;;;5025363;28;19913;-63
2022/09/17 01:12:38;;;;;;;;;;;9.70;99.90;;;;;;5019623;28;20001;-63
2022/09/17 01:15:26;;;;;;;;;;;9.70;99.90;;;;;;5023387;28;20389;-63
2022/09/17 01:18:20;;;;;;;;;;;9.60;99.90;;;;;;5019563;28;19931;-63
2022/09/17 01:21:06;;;;;;;;;;;9.60;99.90;;;;;;5022218;28;19928;-63
2022/09/17 01:23:40;;;;;;;;;;;9.60;99.90;;;;;;5024237;28;19913;-63
2022/09/17 01:26:45;;;;;;;;;;;9.50;99.90;;;;;;5021512;28;20364;-63
2022/09/17 01:29:16;;;;;;;;;;;9.40;99.90;;;;;;4997063;28;19909;-63
2022/09/17 01:31:57;;;;;;;;;;;9.40;99.90;;;;;;4996529;28;19916;-63
2022/09/17 01:34:30;;;;;;;;;;;9.40;99.90;;;;;;5013177;28;20367;-63
2022/09/17 01:37:13;;;;;;;;;;;9.30;99.90;;;;;;5027656;28;19948;-63
2022/09/17 01:39:48;;;;;;;;;;;9.30;99.90;;;;;;5026829;28;20361;-63
2022/09/17 01:42:24;;;;;;;;;;;9.20;99.90;;;;;;5021259;28;19909;-63
2022/09/17 01:44:56;;;;;;;;;;;9.30;99.90;;;;;;5032698;28;19955;-63
2022/09/17 01:47:24;;;;;;;;;;;9.30;99.90;;;;;;5029100;28;19913;-63
2022/09/17 01:49:52;;;;;;;;;;;9.20;99.90;;;;;;5028921;28;19913;-64
2022/09/17 01:52:18;;;;;;;;;;;9.20;99.90;;;;;;5027965;28;19920;-63
2022/09/17 01:54:49;;;;;;;;;;;9.20;99.90;;;;;;5023828;28;19909;-64
2022/09/17 01:57:18;;;;;;;;;;;9.20;99.90;;;;;;5040721;28;19917;-63
2022/09/17 01:59:54;;;;;;;;;;;9.30;99.90;;;;;;5027855;28;20604;-63
2022/09/17 02:02:28;;;;;;;;;;;9.30;99.90;;;;;;5029020;28;19909;-63
2022/09/17 02:04:56;;;;;;;;;;;9.30;99.90;;;;;;5024840;28;20228;-64
2022/09/17 02:07:24;;;;;;;;;;;9.40;99.90;;;;;;5019614;28;20359;-63
2022/09/17 02:10:25;;;;;;;;;;;9.30;99.90;;;;;;5028320;28;19935;-63
2022/09/17 02:13:02;;;;;;;;;;;9.30;99.90;;;;;;5020113;28;19913;-63
2022/09/17 02:15:33;;;;;;;;;;;9.40;99.90;;;;;;5027037;28;20376;-63
2022/09/17 02:18:17;;;;;;;;;;;9.40;99.90;;;;;;5028308;28;19917;-63
2022/09/17 02:20:49;;;;;;;;;;;9.30;99.90;;;;;;5029850;28;19917;-63
2022/09/17 02:23:17;;;;;;;;;;;9.30;99.90;;;;;;5025335;28;19913;-63
2022/09/17 02:25:47;;;;;;;;;;;9.30;99.90;;;;;;5024911;28;20345;-63
2022/09/17 02:28:45;;;;;;;;;;;9.30;99.90;;;;;;5020482;28;20003;-64
2022/09/17 02:31:11;;;;;;;;;;;9.20;99.90;;;;;;5025655;28;19939;-63
2022/09/17 02:33:37;;;;;;;;;;;9.30;99.90;;;;;;5022745;28;19908;-63
2022/09/17 02:36:03;;;;;;;;;;;9.30;99.90;;;;;;5027965;28;20016;-63
2022/09/17 02:38:29;;;;;;;;;;;9.20;99.90;;;;;;5026899;28;19999;-63
2022/09/17 02:41:14;;;;;;;;;;;9.30;99.90;;;;;;5023106;28;19913;-63
2022/09/17 02:43:57;;;;;;;;;;;9.30;99.90;;;;;;5025211;28;19916;-63
2022/09/17 02:46:39;;;;;;;;;;;9.30;99.90;;;;;;5026842;28;20276;-63
2022/09/17 02:49:12;;;;;;;;;;;9.30;99.90;;;;;;5027923;28;20038;-63
2022/09/17 02:51:51;;;;;;;;;;;9.40;99.90;;;;;;5023667;28;19916;-63
2022/09/17 02:54:23;;;;;;;;;;;9.40;99.90;;;;;;5019290;28;19909;-64
2022/09/17 02:56:56;;;;;;;;;;;9.40;99.90;;;;;;5029054;28;19909;-63
2022/09/17 02:59:28;;;;;;;;;;;9.50;99.90;;;;;;5030346;28;19917;-63
2022/09/17 03:02:12;;;;;;;;;;;9.50;99.90;;;;;;5020603;28;19909;-63
2022/09/17 03:04:38;;;;;;;;;;;9.50;99.90;;;;;;5022988;28;19912;-63
2022/09/17 03:07:13;;;;;;;;;;;9.50;99.90;;;;;;5027799;28;20322;-63
2022/09/17 03:09:42;;;;;;;;;;;9.50;99.90;;;;;;5026889;28;19924;-63
2022/09/17 03:12:08;;;;;;;;;;;9.50;99.90;;;;;;5022019;28;19909;-63
2022/09/17 03:14:34;;;;;;;;;;;9.50;99.90;;;;;;5026250;28;19909;-63
2022/09/17 03:16:59;;;;;;;;;;;9.50;99.90;;;;;;5027584;28;19947;-63
2022/09/17 03:19:26;;;;;;;;;;;9.60;99.90;;;;;;5026567;28;19913;-64
2022/09/17 03:21:52;;;;;;;;;;;9.50;99.90;;;;;;5027283;28;19931;-64
2022/09/17 03:24:17;;;;;;;;;;;9.60;99.90;;;;;;5026733;28;20504;-63
2022/09/17 03:26:43;;;;;;;;;;;9.60;99.90;;;;;;5025884;28;19931;-64
2022/09/17 03:29:09;;;;;;;;;;;9.60;99.90;;;;;;5042311;28;19997;-63
2022/09/17 03:31:34;;;;;;;;;;;9.60;99.90;;;;;;5024810;28;19909;-63
2022/09/17 03:34:00;;;;;;;;;;;9.70;99.90;;;;;;5026039;28;19908;-63
2022/09/17 03:36:25;;;;;;;;;;;9.60;99.90;;;;;;5024417;28;20401;-64
2022/09/17 03:38:54;;;;;;;;;;;9.60;99.90;;;;;;5027407;28;20059;-63
2022/09/17 03:41:20;;;;;;;;;;;9.60;99.90;;;;;;5028220;28;20438;-64
2022/09/17 03:43:45;;;;;;;;;;;9.50;99.90;;;;;;5021228;28;19953;-63
2022/09/17 03:46:11;;;;;;;;;;;9.50;99.90;;;;;;5019958;28;20008;-63
2022/09/17 03:48:38;;;;;;;;;;;9.50;99.90;;;;;;5027413;28;20334;-64
2022/09/17 03:51:04;;;;;;;;;;;9.40;99.90;;;;;;5026684;28;19913;-63
2022/09/17 03:53:30;;;;;;;;;;;9.40;99.90;;;;;;5026384;28;19917;-63
2022/09/17 03:56:00;;;;;;;;;;;9.40;99.90;;;;;;5024764;28;19999;-64
2022/09/17 03:58:26;;;;;;;;;;;9.30;99.90;;;;;;5022382;28;20384;-64
2022/09/17 04:00:52;;;;;;;;;;;9.30;99.90;;;;;;5025903;28;19916;-64
2022/09/17 04:03:18;;;;;;;;;;;9.30;99.90;;;;;;5025311;28;19909;-63
2022/09/17 04:05:43;;;;;;;;;;;9.30;99.90;;;;;;5023798;28;19909;-63
2022/09/17 04:08:09;;;;;;;;;;;9.20;99.90;;;;;;5020108;28;19917;-63
2022/09/17 04:10:34;;;;;;;;;;;9.20;99.90;;;;;;5025701;28;20133;-63
2022/09/17 04:13:00;;;;;;;;;;;9.20;99.90;;;;;;5022111;28;19909;-64
2022/09/17 04:15:25;;;;;;;;;;;9.20;99.90;;;;;;5022214;28;19924;-63
2022/09/17 04:17:53;;;;;;;;;;;9.20;99.90;;;;;;5027903;28;19912;-64
2022/09/17 04:20:19;;;;;;;;;;;9.10;99.90;;;;;;5025794;28;19913;-63
2022/09/17 04:22:44;;;;;;;;;;;9.10;99.90;;;;;;5026490;28;19924;-64
2022/09/17 04:25:10;;;;;;;;;;;9.10;99.90;;;;;;5026102;28;19991;-63
2022/09/17 04:27:35;;;;;;;;;;;9.10;99.90;;;;;;5025243;28;19917;-63
2022/09/17 04:30:01;;;;;;;;;;;9.00;99.90;;;;;;5022884;28;19908;-63
2022/09/17 04:32:26;;;;;;;;;;;9.10;99.90;;;;;;5024827;28;19909;-63
2022/09/17 04:34:52;;;;;;;;;;;9.10;99.90;;;;;;5024322;28;19975;-63
2022/09/17 04:37:18;;;;;;;;;;;9.00;99.90;;;;;;5025723;28;19916;-63
2022/09/17 04:39:44;;;;;;;;;;;8.90;99.90;;;;;;5021114;28;19909;-63
2022/09/17 04:42:09;;;;;;;;;;;8.90;99.90;;;;;;5023975;28;19909;-63
2022/09/17 04:44:35;;;;;;;;;;;9.00;99.90;;;;;;5022590;28;20187;-63
2022/09/17 04:47:00;;;;;;;;;;;9.00;99.90;;;;;;5025222;28;19917;-63
2022/09/17 04:49:28;;;;;;;;;;;9.00;99.90;;;;;;5021517;28;19959;-63
2022/09/17 04:51:54;;;;;;;;;;;9.00;99.90;;;;;;5026016;28;19966;-64
2022/09/17 04:54:19;;;;;;;;;;;8.90;99.90;;;;;;5025148;28;19913;-63
2022/09/17 04:56:45;;;;;;;;;;;9.00;99.90;;;;;;5024946;28;19916;-63
2022/09/17 04:59:10;;;;;;;;;;;9.00;99.90;;;;;;5026179;28;19959;-63
2022/09/17 05:01:36;;;;;;;;;;;9.10;99.90;;;;;;5028277;28;19996;-63
2022/09/17 05:04:02;;;;;;;;;;;9.10;99.90;;;;;;5025396;28;20299;-63
2022/09/17 05:06:27;;;;;;;;;;;9.20;99.90;;;;;;5038116;28;19909;-64
2022/09/17 05:08:53;;;;;;;;;;;9.20;99.90;;;;;;5023626;28;19979;-64
2022/09/17 05:11:18;;;;;;;;;;;9.30;99.90;;;;;;5022732;28;19909;-63
2022/09/17 05:13:44;;;;;;;;;;;9.30;99.90;;;;;;5022381;28;19909;-63
2022/09/17 05:16:09;;;;;;;;;;;9.30;99.90;;;;;;5022205;28;19967;-63
2022/09/17 05:18:35;;;;;;;;;;;9.30;99.90;;;;;;5022409;28;20379;-63
2022/09/17 05:21:00;;;;;;;;;;;9.30;99.90;;;;;;5027930;28;19916;-63
2022/09/17 05:23:26;;;;;;;;;;;9.30;99.90;;;;;;5025901;28;19949;-63
2022/09/17 05:25:51;;;;;;;;;;;9.30;99.90;;;;;;5026176;28;19996;-63
2022/09/17 05:28:17;;;;;;;;;;;9.30;99.90;;;;;;5026272;28;19909;-63
2022/09/17 05:30:43;;;;;;;;;;;9.30;99.90;;;;;;5028872;28;19909;-63
2022/09/17 05:33:08;;;;;;;;;;;9.30;99.90;;;;;;5028904;28;20028;-63
2022/09/17 05:35:35;;;;;;;;;;;9.30;99.90;;;;;;5023071;28;19917;-63
2022/09/17 05:38:02;;;;;;;;;;;9.30;99.90;;;;;;5033924;28;19905;-63
2022/09/17 05:40:28;;;;;;;;;;;9.20;99.90;;;;;;5030983;28;20272;-64
2022/09/17 05:42:57;;;;;;;;;;;9.20;99.90;;;;;;5028379;28;19905;-63
2022/09/17 05:45:22;;;;;;;;;;;9.20;99.90;;;;;;5025453;28;19912;-63
2022/09/17 05:47:53;;;;;;;;;;;9.20;99.90;;;;;;5028304;28;20390;-64
2022/09/17 05:50:18;;;;;;;;;;;9.20;99.90;;;;;;5028625;28;19955;-63
2022/09/17 05:52:44;;;;;;;;;;;9.30;99.90;;;;;;5028121;28;20381;-63
2022/09/17 05:55:09;;;;;;;;;;;9.40;99.90;;;;;;5025227;28;19909;-63
2022/09/17 05:57:35;;;;;;;;;;;9.40;99.90;;;;;;5027292;28;20376;-64
2022/09/17 06:00:00;;;;;;;;;;;9.50;99.90;;;;;;5025335;28;19959;-63
2022/09/17 06:02:26;;;;;;;;;;;9.60;99.90;;;;;;5028796;28;19932;-63
2022/09/17 06:04:51;;;;;;;;;;;9.60;99.90;;;;;;5028149;28;19909;-63
2022/09/17 06:07:17;;;;;;;;;;;9.80;99.90;;;;;;5026317;28;20342;-63
2022/09/17 06:09:42;;;;;;;;;;;9.90;99.90;;;;;;5025441;28;19913;-63
2022/09/17 06:12:08;;;;;;;;;;;10.00;99.90;;;;;;5023484;28;19955;-63
2022/09/17 06:14:33;;;;;;;;;;;10.10;99.90;;;;;;5025697;28;20357;-63
2022/09/17 06:16:59;;;;;;;;;;;10.10;99.90;;;;;;5028076;28;19949;-63
2022/09/17 06:19:24;;;;;;;;;;;10.20;99.90;;;;;;5026114;28;19905;-64
2022/09/17 06:21:50;;;;;;;;;;;10.30;99.90;;;;;;5025633;28;20012;-64
2022/09/17 06:24:15;;;;;;;;;;;10.40;99.90;;;;;;5028853;28;19917;-63
2022/09/17 06:26:41;;;;;;;;;;;10.40;99.90;;;;;;5023466;28;20395;-64
2022/09/17 06:29:06;;;;;;;;;;;10.50;99.90;;;;;;5025672;28;19963;-64
2022/09/17 06:31:32;;;;;;;;;;;10.50;99.90;;;;;;5029936;28;19909;-64
2022/09/17 06:33:57;;;;;;;;;;;10.50;99.90;;;;;;5024708;28;19955;-64
2022/09/17 06:36:23;;;;;;;;;;;10.60;99.90;;;;;;5028174;28;19917;-63
2022/09/17 06:38:48;;;;;;;;;;;10.60;99.90;;;;;;5027201;28;20494;-63
2022/09/17 06:41:15;;;;;;;;;;;10.60;99.90;;;;;;5026703;28;19943;-64
2022/09/17 06:43:41;;;;;;;;;;;10.60;99.90;;;;;;5024984;28;19909;-64
2022/09/17 06:46:09;;;;;;;;;;;10.60;99.90;;;;;;5029600;28;19991;-64
2022/09/17 06:48:34;;;;;;;;;;;10.50;99.90;;;;;;5027495;28;19909;-63
2022/09/17 06:51:01;;;;;;;;;;;10.50;99.90;;;;;;5027926;28;19912;-63
2022/09/17 06:53:28;;;;;;;;;;;10.50;99.90;;;;;;5027737;28;19920;-63
2022/09/17 06:55:55;;;;;;;;;;;10.50;99.90;;;;;;5029348;28;20450;-63
2022/09/17 06:58:21;;;;;;;;;;;10.50;99.90;;;;;;5022994;28;19916;-63
2022/09/17 07:00:46;;;;;;;;;;;10.50;99.90;;;;;;5028957;28;19912;-63
2022/09/17 07:03:12;;;;;;;;;;;10.50;99.90;;;;;;5030516;28;19971;-63
2022/09/17 07:05:37;;;;;;;;;;;10.40;99.90;;;;;;5027898;28;19916;-64
2022/09/17 07:08:03;;;;;;;;;;;10.40;99.90;;;;;;5027918;28;20001;-64
2022/09/17 07:10:29;;;;;;;;;;;10.50;99.90;;;;;;5028375;28;20348;-64
2022/09/17 07:12:54;;;;;;;;;;;10.50;99.90;;;;;;5024288;28;19940;-64
2022/09/17 07:15:20;;;;;;;;;;;10.60;99.90;;;;;;5026079;28;19970;-63
2022/09/17 07:17:45;;;;;;;;;;;10.60;99.90;;;;;;5022976;28;19924;-63
2022/09/17 07:20:11;;;;;;;;;;;10.70;99.90;;;;;;5024604;28;20296;-64
2022/09/17 07:22:37;;;;;;;;;;;10.80;99.90;;;;;;5024431;28;19921;-63
2022/09/17 07:25:03;;;;;;;;;;;10.80;99.90;;;;;;5024793;28;19993;-64
2022/09/17 07:27:29;;;;;;;;;;;10.80;99.90;;;;;;5025738;28;19916;-64
2022/09/17 07:29:55;;;;;;;;;;;10.90;99.90;;;;;;5025948;28;20286;-64
2022/09/17 07:32:21;;;;;;;;;;;11.10;99.90;;;;;;5027135;28;20658;-64
2022/09/17 07:34:48;;;;;;;;;;;11.10;99.90;;;;;;5026369;28;19916;-64
2022/09/17 07:37:14;;;;;;;;;;;11.20;99.90;;;;;;5027040;28;19924;-64
2022/09/17 07:39:40;;;;;;;;;;;11.10;99.90;;;;;;5026382;28;19909;-63
2022/09/17 07:42:06;;;;;;;;;;;11.10;99.90;;;;;;5023589;28;19964;-64
2022/09/17 07:44:32;;;;;;;;;;;11.20;99.90;;;;;;5028289;28;20383;-63
2022/09/17 07:46:57;;;;;;;;;;;11.20;99.90;;;;;;5026249;28;20258;-63
2022/09/17 07:49:23;;;;;;;;;;;11.40;99.90;;;;;;5025726;28;19913;-63
2022/09/17 07:51:48;;;;;;;;;;;11.40;99.90;;;;;;5024175;28;20140;-63
2022/09/17 07:54:14;;;;;;;;;;;11.20;99.90;;;;;;5024920;28;19948;-63
2022/09/17 07:56:39;;;;;;;;;;;11.10;99.90;;;;;;5024577;28;19935;-64
2022/09/17 07:59:05;;;;;;;;;;;11.30;99.90;;;;;;5024269;28;20326;-63
2022/09/17 08:01:32;;;;;;;;;;;11.40;99.90;;;;;;5028887;28;20557;-63
2022/09/17 08:03:58;;;;;;;;;;;11.40;99.90;;;;;;5022216;28;20414;-63
2022/09/17 08:06:25;;;;;;;;;;;11.60;99.90;;;;;;5025778;28;20050;-63
2022/09/17 08:08:50;;;;;;;;;;;11.70;99.90;;;;;;5024658;28;19921;-63
2022/09/17 08:11:18;;;;;;;;;;;11.60;99.90;;;;;;5024753;28;19909;-63
2022/09/17 08:13:46;;;;;;;;;;;11.80;99.90;;;;;;5023102;28;20353;-63
2022/09/17 08:16:12;;;;;;;;;;;11.70;99.90;;;;;;5024763;28;19936;-63
2022/09/17 08:18:38;;;;;;;;;;;11.70;99.90;;;;;;5024402;28;19909;-63
2022/09/17 08:21:04;;;;;;;;;;;12.00;99.90;;;;;;5024065;28;19968;-63
2022/09/17 08:23:30;;;;;;;;;;;12.30;99.90;;;;;;5026646;28;19917;-64
2022/09/17 08:25:57;;;;;;;;;;;12.60;99.90;;;;;;5025786;28;20394;-63
2022/09/17 08:28:24;;;;;;;;;;;13.00;99.90;;;;;;5024206;28;19916;-63
2022/09/17 08:30:50;;;;;;;;;;;13.40;99.90;;;;;;5026111;28;19904;-64
2022/09/17 08:33:16;;;;;;;;;;;13.40;99.90;;;;;;5020595;28;20343;-63
2022/09/17 08:35:42;;;;;;;;;;;13.00;99.90;;;;;;5024454;28;19942;-63
2022/09/17 08:38:07;;;;;;;;;;;13.60;99.90;;;;;;5025708;28;20296;-63
2022/09/17 08:40:38;;;;;;;;;;;13.50;99.90;;;;;;5019410;28;19912;-63
2022/09/17 08:43:04;;;;;;;;;;;13.80;99.90;;;;;;5019985;28;19916;-63
2022/09/17 08:45:30;;;;;;;;;;;14.20;99.90;;;;;;5017467;28;19917;-64
2022/09/17 08:48:00;;;;;;;;;;;14.20;99.90;;;;;;5023796;28;20307;-64
2022/09/17 08:50:26;;;;;;;;;;;14.30;99.90;;;;;;5021935;28;20016;-64
2022/09/17 08:53:06;;;;;;;;;;;14.70;99.90;;;;;;5024626;28;19920;-64
2022/09/17 08:55:54;;;;;;;;;;;14.50;99.90;;;;;;5033716;28;20315;-64
2022/09/17 08:58:19;;;;;;;;;;;14.40;99.90;;;;;;5024160;28;20476;-63
2022/09/17 09:00:49;;;;;;;;;;;14.50;99.90;;;;;;5025410;28;20078;-63
2022/09/17 09:03:15;;;;;;;;;;;14.50;99.90;;;;;;5028320;28;19912;-63
2022/09/17 09:05:48;;;;;;;;;;;14.00;99.90;;;;;;5024160;28;20200;-63
2022/09/17 09:08:18;;;;;;;;;;;14.40;99.90;;;;;;5026577;28;19931;-63
2022/09/17 09:10:49;;;;;;;;;;;14.20;99.90;;;;;;5019747;28;19935;-63
2022/09/17 09:13:16;;;;;;;;;;;14.10;99.90;;;;;;5021893;28;19915;-66
2022/09/17 09:15:47;;;;;;;;;;;14.50;99.90;;;;;;5024829;28;20287;-67
2022/09/17 09:18:16;;;;;;;;;;;14.90;99.90;;;;;;5024450;28;19995;-66
2022/09/17 09:20:47;;;;;;;;;;;15.60;99.90;;;;;;5026086;28;19967;-66
2022/09/17 09:23:18;;;;;;;;;;;15.40;99.90;;;;;;5026579;28;19963;-66
2022/09/17 09:25:52;;;;;;;;;;;14.60;99.90;;;;;;5022068;28;20323;-66
2022/09/17 09:28:17;;;;;;;;;;;14.50;99.90;;;;;;5025359;28;19915;-69
2022/09/17 09:30:54;;;;;;;;;;;14.30;99.90;;;;;;5018686;28;19908;-67
2022/09/17 09:33:25;;;;;;;;;;;14.50;99.90;;;;;;5023587;28;19917;-67
2022/09/17 09:35:51;;;;;;;;;;;15.50;99.90;;;;;;5024063;28;19917;-67
2022/09/17 09:38:23;;;;;;;;;;;15.70;99.90;;;;;;5019030;28;19920;-66
2022/09/17 09:40:54;;;;;;;;;;;15.00;99.90;;;;;;5023519;28;20328;-67
2022/09/17 09:43:30;;;;;;;;;;;15.60;99.90;;;;;;5022764;28;20327;-67
2022/09/17 09:46:02;;;;;;;;;;;15.70;99.90;;;;;;5025856;28;19909;-64
2022/09/17 09:48:33;;;;;;;;;;;14.70;99.90;;;;;;5020248;28;19916;-64
2022/09/17 09:51:07;;;;;;;;;;;15.40;99.90;;;;;;5024402;28;19924;-64
2022/09/17 09:53:32;;;;;;;;;;;16.40;99.90;;;;;;5035801;28;20358;-65
2022/09/17 09:55:58;;;;;;;;;;;15.80;99.90;;;;;;5023012;28;19917;-64
2022/09/17 09:58:32;;;;;;;;;;;15.10;99.90;;;;;;5040364;28;19963;-63
2022/09/17 10:00:58;;;;;;;;;;;15.80;99.90;;;;;;5027796;28;19913;-63
2022/09/17 10:03:31;;;;;;;;;;;15.60;99.90;;;;;;5025572;28;20152;-63
2022/09/17 10:06:02;;;;;;;;;;;15.20;99.90;;;;;;5027035;28;20381;-63
2022/09/17 10:08:31;;;;;;;;;;;15.00;99.90;;;;;;5033579;28;19913;-63
2022/09/17 10:10:56;;;;;;;;;;;15.00;99.90;;;;;;5032701;28;20331;-63
2022/09/17 10:13:22;;;;;;;;;;;14.30;99.90;;;;;;5031527;28;19908;-63
2022/09/17 10:15:47;;;;;;;;;;;14.20;99.90;;;;;;5032254;28;19919;-64
2022/09/17 10:18:17;;;;;;;;;;;14.80;99.90;;;;;;5032751;28;19912;-63
2022/09/17 10:20:59;;;;;;;;;;;14.90;99.90;;;;;;5022249;28;20036;-63
2022/09/17 10:23:27;;;;;;;;;;;15.20;99.90;;;;;;5024445;28;19917;-63
2022/09/17 10:25:54;;;;;;;;;;;16.20;99.90;;;;;;5028048;28;19955;-63
2022/09/17 10:28:20;;;;;;;;;;;15.80;99.90;;;;;;5028569;28;19955;-63
2022/09/17 10:31:14;;;;;;;;;;;16.10;99.90;;;;;;5025739;28;19952;-63
2022/09/17 10:33:50;;;;;;;;;;;16.80;99.90;;;;;;5023469;28;19909;-63
2022/09/17 10:36:33;;;;;;;;;;;16.90;99.90;;;;;;5040601;28;19925;-63
2022/09/17 10:39:17;;;;;;;;;;;17.50;99.90;;;;;;5036968;28;20287;-63
2022/09/17 10:41:52;;;;;;;;;;;17.70;99.90;;;;;;5027895;28;19912;-63
2022/09/17 10:44:20;;;;;;;;;;;16.30;99.90;;;;;;5027550;28;20007;-63
2022/09/17 10:46:45;;;;;;;;;;;15.80;99.90;;;;;;5026572;28;20274;-63
2022/09/17 10:49:20;;;;;;;;;;;16.30;99.90;;;;;;5027451;28;19909;-63
2022/09/17 10:51:46;;;;;;;;;;;16.90;99.90;;;;;;5028031;28;19924;-63
2022/09/17 10:54:11;;;;;;;;;;;16.70;99.90;;;;;;5026303;28;20395;-63
2022/09/17 10:56:39;;;;;;;;;;;17.00;99.90;;;;;;5037595;28;19932;-64
2022/09/17 10:59:23;;;;;;;;;;;18.70;99.90;;;;;;5024130;28;19909;-63
2022/09/17 11:02:01;;;;;;;;;;;18.90;97.30;;;;;;5021032;28;19976;-63
2022/09/17 11:04:47;;;;;;;;;;;17.30;99.50;;;;;;5025537;28;19920;-63
2022/09/17 11:07:26;;;;;;;;;;;16.00;99.90;;;;;;5026191;28;20411;-63
2022/09/17 11:10:01;;;;;;;;;;;15.40;99.90;;;;;;5021822;28;19909;-63
2022/09/17 11:12:30;;;;;;;;;;;15.20;99.90;;;;;;5023787;28;19908;-64
2022/09/17 11:15:15;;;;;;;;;;;15.20;99.90;;;;;;5026936;28;20281;-63
2022/09/17 11:17:55;;;;;;;;;;;15.70;99.90;;;;;;5028701;28;20356;-63
2022/09/17 11:20:39;;;;;;;;;;;15.50;99.90;;;;;;5026295;28;19913;-63
2022/09/17 11:23:20;;;;;;;;;;;16.90;99.90;;;;;;5021939;28;20011;-63
2022/09/17 11:25:57;;;;;;;;;;;17.60;99.90;;;;;;5027096;28;19915;-64
2022/09/17 11:28:22;;;;;;;;;;;17.50;99.50;;;;;;5026391;28;19909;-63
2022/09/17 11:30:55;;;;;;;;;;;18.30;98.50;;;;;;5039513;28;19909;-63
2022/09/17 11:33:38;;;;;;;;;;;18.50;98.50;;;;;;5023609;28;19916;-63
2022/09/17 11:36:10;;;;;;;;;;;19.00;96.60;;;;;;5021361;28;19921;-63
2022/09/17 11:38:38;;;;;;;;;;;17.40;99.20;;;;;;5022224;28;20011;-63
2022/09/17 11:41:09;;;;;;;;;;;17.20;99.90;;;;;;5023143;28;19971;-63
2022/09/17 11:43:38;;;;;;;;;;;17.50;99.90;;;;;;5024572;28;19909;-63
2022/09/17 11:46:03;;;;;;;;;;;17.70;99.90;;;;;;5024827;28;19996;-63
2022/09/17 11:48:34;;;;;;;;;;;17.90;99.80;;;;;;5030281;28;20020;-64
2022/09/17 11:51:03;;;;;;;;;;;18.30;99.40;;;;;;5027208;28;19919;-64
2022/09/17 11:53:31;;;;;;;;;;;18.10;99.60;;;;;;5026514;28;19913;-64
2022/09/17 11:56:03;;;;;;;;;;;19.50;98.20;;;;;;5040610;28;19924;-64
2022/09/17 11:58:48;;;;;;;;;;;20.10;95.70;;;;;;5025017;28;19952;-63
2022/09/17 12:01:18;;;;;;;;;;;19.70;96.40;;;;;;5024709;28;20377;-64
2022/09/17 12:03:55;;;;;;;;;;;19.70;96.10;;;;;;5024187;28;20202;-64
2022/09/17 12:06:37;;;;;;;;;;;18.30;97.20;;;;;;5026585;28;19909;-64
2022/09/17 12:09:09;;;;;;;;;;;16.90;99.90;;;;;;5018195;28;19919;-64
2022/09/17 12:11:44;;;;;;;;;;;16.50;99.90;;;;;;5015202;28;19917;-65
2022/09/17 12:14:15;;;;;;;;;;;15.90;99.90;;;;;;5016189;28;19917;-65
2022/09/17 12:16:43;;;;;;;;;;;16.20;99.90;;;;;;5019227;28;20259;-65
2022/09/17 12:19:25;;;;;;;;;;;17.10;99.90;;;;;;5017943;28;20288;-66
2022/09/17 12:21:53;;;;;;;;;;;16.40;99.90;;;;;;5022620;28;19925;-63
2022/09/17 12:24:25;;;;;;;;;;;15.10;99.90;;;;;;5029756;28;19913;-63
2022/09/17 12:26:54;;;;;;;;;;;14.80;99.90;;;;;;5030432;28;19908;-63
2022/09/17 12:29:38;;;;;;;;;;;14.10;99.90;;;;;;5029328;28;20331;-63
2022/09/17 12:32:21;;;;;;;;;;;13.50;99.90;;;;;;5026402;28;20279;-62
2022/09/17 12:34:57;;;;;;;;;;;13.00;99.90;;;;;;5038788;28;19964;-62
2022/09/17 12:37:34;;;;;;;;;;;13.20;99.90;;;;;;5021423;28;20280;-62
2022/09/17 12:39:59;;;;;;;;;;;13.00;99.90;;;;;;5022549;28;19909;-62
2022/09/17 12:42:43;;;;;;;;;;;12.80;99.90;;;;;;5023679;28;19920;-63
2022/09/17 12:45:16;;;;;;;;;;;12.70;99.90;;;;;;5039203;28;19916;-63
2022/09/17 12:48:00;;;;;;;;;;;12.60;99.90;;;;;;5032669;28;19978;-64
2022/09/17 12:50:28;;;;;;;;;;;13.10;99.90;;;;;;5029349;28;20376;-63
2022/09/17 12:53:01;;;;;;;;;;;15.90;99.90;;;;;;5025272;28;19928;-64
2022/09/17 12:55:35;;;;;;;;;;;16.40;99.90;;;;;;5027451;28;20008;-64
2022/09/17 12:58:07;;;;;;;;;;;16.70;99.90;;;;;;5027711;28;20194;-64
2022/09/17 13:00:40;;;;;;;;;;;15.30;99.90;;;;;;5025913;28;19909;-63
2022/09/17 13:03:26;;;;;;;;;;;14.00;99.90;;;;;;5028519;28;19913;-63
2022/09/17 13:05:53;;;;;;;;;;;13.40;99.90;;;;;;5028322;28;19916;-64
2022/09/17 13:08:54;;;;;;;;;;;13.90;99.90;;;;;;5023450;28;19940;-64
2022/09/17 13:11:43;;;;;;;;;;;15.10;99.90;;;;;;5021172;28;19987;-64
2022/09/17 13:14:27;;;;;;;;;;;16.70;99.90;;;;;;5016369;28;19909;-64
2022/09/17 13:17:02;;;;;;;;;;;16.90;99.90;;;;;;5022188;28;20010;-63
2022/09/17 13:19:46;;;;;;;;;;;17.80;99.90;;;;;;5025636;28;19905;-64
2022/09/17 13:22:16;;;;;;;;;;;16.60;99.90;;;;;;5024803;28;19917;-63
2022/09/17 13:24:42;;;;;;;;;;;14.50;99.90;;;;;;5026000;28;19920;-63
2022/09/17 13:27:18;;;;;;;;;;;13.60;99.90;;;;;;5029008;28;19909;-63
2022/09/17 13:29:43;;;;;;;;;;;13.10;99.90;;;;;;5024211;28;19955;-64
2022/09/17 13:32:28;;;;;;;;;;;12.80;99.90;;;;;;5023311;28;19916;-64
2022/09/17 13:34:53;;;;;;;;;;;12.60;99.90;;;;;;5022185;28;19917;-64
2022/09/17 13:37:19;;;;;;;;;;;13.70;99.90;;;;;;5021331;28;20300;-64
2022/09/17 13:39:46;;;;;;;;;;;14.50;99.90;;;;;;5032866;28;20004;-64
2022/09/17 13:42:44;;;;;;;;;;;14.50;99.90;;;;;;5010318;28;19929;-65
2022/09/17 13:45:16;;;;;;;;;;;15.30;99.90;;;;;;5024413;28;20231;-64
2022/09/17 13:47:49;;;;;;;;;;;15.90;99.90;;;;;;5023834;28;19932;-64
2022/09/17 13:50:26;;;;;;;;;;;15.00;99.90;;;;;;5022053;28;19952;-65
2022/09/17 13:52:54;;;;;;;;;;;15.60;99.90;;;;;;5019414;28;19936;-64
2022/09/17 13:55:30;;;;;;;;;;;14.80;99.90;;;;;;5031191;28;19909;-64
2022/09/17 13:57:56;;;;;;;;;;;14.50;99.90;;;;;;5023425;28;20432;-64
2022/09/17 14:00:40;;;;;;;;;;;15.00;99.90;;;;;;5029255;28;19909;-65
2022/09/17 14:03:25;;;;;;;;;;;15.00;99.90;;;;;;5042807;28;20466;-64
2022/09/17 14:05:50;;;;;;;;;;;14.70;99.90;;;;;;5025552;28;20285;-64
2022/09/17 14:08:26;;;;;;;;;;;14.40;99.90;;;;;;5025576;28;19913;-64
2022/09/17 14:10:52;;;;;;;;;;;14.30;99.90;;;;;;5028511;28;19988;-64
2022/09/17 14:13:25;;;;;;;;;;;14.10;99.90;;;;;;5007657;28;20962;-64
2022/09/17 14:16:59;;;;;;;;;;;14.20;99.90;;;;;;5075963;27;19931;-63
2022/09/17 14:19:38;;;;;;;;;;;14.20;99.90;;;;;;5065306;28;19920;-63
2022/09/17 14:22:04;;;;;;;;;;;14.50;99.90;;;;;;5062139;28;19916;-64
2022/09/17 14:24:38;;;;;;;;;;;14.50;99.90;;;;;;5057404;28;19923;-64
2022/09/17 14:27:13;;;;;;;;;;;14.30;99.90;;;;;;5062207;28;21152;-64
2022/09/17 14:30:00;;;;;;;;;;;14.10;99.90;;;;;;5057320;28;19912;-64
2022/09/17 14:32:41;;;;;;;;;;;13.90;99.90;;;;;;5051497;28;20197;-64
2022/09/17 14:35:15;;;;;;;;;;;13.90;99.90;;;;;;4992786;27;21632;-64
2022/09/17 14:37:42;;;;;;;;;;;13.70;99.90;;;;;;5010042;28;19917;-64
2022/09/17 14:40:09;;;;;;;;;;;13.70;99.90;;;;;;5016114;28;19955;-65